R.catalunya — EALC — position and weather

sailwx.info

Track history (hours):
 
Tides and Currents Weather Stations Pressure Air Temp Water Temp Dewpoint Dewpoint Depression Visibility Wind Speed Wind Dir Waves Ship Positions

R.catalunya

Last reported at 2014-Oct-21 20:11 UTC. Time now 2014-Oct-23 08:54 UTC.
Position N 41°21' E 002°09'.

; draft 6.5 m.

Type: Tug. MMSI: 224149970.

Date/timePositionNaut miles runAvg speedWind from/ knotsBaromVisibWave heightAir tempDewpointWater temp
2014-Oct-21 20:11N 41°21' E 002°09'0 0.0
2014-Oct-21 17:33N 41°21' E 002°09'0 0.0
2014-Oct-21 15:11N 41°21' E 002°09'0 0.0
2014-Oct-21 14:17N 41°21' E 002°09'0 0.0
2014-Oct-21 13:26N 41°21' E 002°09'0 0.0
2014-Oct-20 19:17N 41°21' E 002°09'1 0.5
2014-Oct-20 17:11N 41°21' E 002°10'1 1.3
2014-Oct-20 16:20N 41°21' E 002°09'2 2.0
2014-Oct-20 15:29N 41°22' E 002°11'2 1.3
2014-Oct-20 14:11N 41°21' E 002°09'0 0.2
2014-Oct-20 12:27N 41°21' E 002°10'0 0.2
2014-Oct-20 10:12N 41°21' E 002°09'0 0.0
2014-Oct-19 19:22N 41°21' E 002°09'1 1.2
2014-Oct-19 18:19N 41°20' E 002°10'1 1.5
2014-Oct-19 17:20N 41°18' E 002°09'1 1.2
2014-Oct-19 16:17N 41°19' E 002°10'2 1.9
2014-Oct-19 15:22N 41°21' E 002°09'0 0.0
2014-Oct-19 14:33N 41°21' E 002°09'0 0.0
2014-Oct-19 13:25N 41°21' E 002°09'0 0.0
2014-Oct-19 12:27N 41°21' E 002°09'0 0.0
2014-Oct-19 11:24N 41°21' E 002°09'0 0.0
2014-Oct-19 10:15N 41°21' E 002°09'0 0.0
2014-Oct-19 09:10N 41°21' E 002°09'1 1.4
2014-Oct-19 08:31N 41°20' E 002°10'1 0.1
2014-Oct-18 21:30N 41°21' E 002°09'0 0.0
2014-Oct-18 20:21N 41°21' E 002°09'0 0.0
2014-Oct-18 19:08N 41°21' E 002°09'0 0.0
2014-Oct-18 18:32N 41°21' E 002°09'1 1.3
2014-Oct-18 17:29N 41°20' E 002°10'1 1.5
2014-Oct-18 16:33N 41°21' E 002°09'1 0.9
2014-Oct-18 15:33N 41°20' E 002°09'0 0.3
2014-Oct-18 14:33N 41°20' E 002°09'1 0.6
2014-Oct-18 13:33N 41°21' E 002°09'0 0.1
2014-Oct-18 12:33N 41°21' E 002°09'1 0.6
2014-Oct-18 11:33N 41°20' E 002°10'1 1.2
2014-Oct-18 10:33N 41°19' E 002°10'2 1.4
2014-Oct-18 09:27N 41°21' E 002°10'1 0.9
2014-Oct-18 08:24N 41°20' E 002°09'1 1.6
2014-Oct-18 07:33N 41°21' E 002°10'2 1.8
2014-Oct-18 06:33N 41°19' E 002°10'2 1.7
2014-Oct-18 05:33N 41°21' E 002°09'0 0.0
2014-Oct-18 04:30N 41°21' E 002°09'0 0.0
2014-Oct-18 03:23N 41°21' E 002°09'0 0.0
2014-Oct-18 02:26N 41°21' E 002°09'0 0.0
2014-Oct-18 01:25N 41°21' E 002°09'0 0.0
2014-Oct-18 00:07N 41°21' E 002°09'0 0.0
2014-Oct-17 23:33N 41°21' E 002°09'0 0.0
2014-Oct-17 22:33N 41°21' E 002°09'0 0.0
2014-Oct-17 21:33N 41°21' E 002°09'0 0.0
2014-Oct-17 20:33N 41°21' E 002°09'0 0.0
2014-Oct-17 19:33N 41°21' E 002°09'0 0.0
2014-Oct-17 18:33N 41°21' E 002°09'0 0.2
2014-Oct-17 17:32N 41°21' E 002°09'0 0.2
2014-Oct-17 16:33N 41°21' E 002°09'0 0.0
2014-Oct-17 15:33N 41°21' E 002°09'1 0.6
2014-Oct-17 14:33N 41°21' E 002°10'1 0.6
2014-Oct-17 13:33N 41°21' E 002°09'0 0.0
2014-Oct-17 12:33N 41°21' E 002°09'0 0.0
2014-Oct-17 11:33N 41°21' E 002°09'0 0.0
2014-Oct-17 10:31N 41°21' E 002°09'1 1.3
2014-Oct-17 09:33N 41°22' E 002°10'2 2.2
2014-Oct-17 08:33N 41°19' E 002°10'2 1.5
2014-Oct-17 07:34N 41°21' E 002°10'1 0.8
2014-Oct-17 06:33N 41°21' E 002°09'0 0.0
2014-Oct-17 05:33N 41°21' E 002°09'0 0.0
2014-Oct-17 04:33N 41°21' E 002°09'0 0.0
2014-Oct-17 03:33N 41°21' E 002°09'0 0.0
2014-Oct-17 02:33N 41°21' E 002°09'0 0.0
2014-Oct-17 01:33N 41°21' E 002°09'0 0.0
2014-Oct-17 00:33N 41°21' E 002°09'0 0.0
2014-Oct-16 23:33N 41°21' E 002°09'0 0.0
2014-Oct-16 22:33N 41°21' E 002°09'0 0.0
2014-Oct-16 21:32N 41°21' E 002°09'0 0.0
2014-Oct-16 20:25N 41°21' E 002°09'0 0.0
2014-Oct-16 19:33N 41°21' E 002°09'0 0.3
2014-Oct-16 18:33N 41°21' E 002°09'2 2.0
2014-Oct-16 17:33N 41°19' E 002°10'1 0.6
2014-Oct-16 16:33N 41°19' E 002°09'0 0.4
2014-Oct-16 15:33N 41°19' E 002°10'1 1.0
2014-Oct-16 14:33N 41°20' E 002°10'0 0.2
2014-Oct-16 13:33N 41°20' E 002°10'2 1.8
2014-Oct-16 12:33N 41°18' E 002°11'1 1.2
2014-Oct-16 11:33N 41°19' E 002°10'2 1.6
2014-Oct-16 10:33N 41°21' E 002°09'0 0.0
2014-Oct-16 09:33N 41°21' E 002°09'0 0.0
2014-Oct-16 08:27N 41°21' E 002°09'1 0.6
2014-Oct-16 07:32N 41°21' E 002°10'0 0.4
2014-Oct-16 06:32N 41°20' E 002°10'1 0.9
2014-Oct-16 05:32N 41°21' E 002°09'0 0.0
2014-Oct-16 01:17N 41°21' E 002°09'0 0.0
2014-Oct-16 00:32N 41°21' E 002°09'0 0.0
2014-Oct-15 23:33N 41°21' E 002°09'0 0.0
2014-Oct-15 22:33N 41°21' E 002°09'0 0.0
2014-Oct-15 21:32N 41°21' E 002°09'0 0.0
2014-Oct-15 20:33N 41°21' E 002°09'0 0.0
2014-Oct-15 19:33N 41°21' E 002°09'0 0.0
2014-Oct-15 18:32N 41°21' E 002°09'1 1.2
2014-Oct-15 17:32N 41°20' E 002°10'2 2.1
2014-Oct-15 16:33N 41°22' E 002°10'0 0.2
2014-Oct-15 14:30N 41°21' E 002°10'2 1.9
2014-Oct-15 13:33N 41°19' E 002°10'1 1.2
2014-Oct-15 12:33N 41°18' E 002°09'3 3.2
2014-Oct-15 11:33N 41°22' E 002°11'0 0.1
2014-Oct-15 10:32N 41°22' E 002°10'2 1.4
2014-Oct-15 09:27N 41°20' E 002°10'1 0.8
2014-Oct-15 08:14N 41°21' E 002°09'0 0.6
2014-Oct-15 07:23N 41°20' E 002°09'0 0.1
2014-Oct-15 05:04N 41°21' E 002°09'2 3.7
2014-Oct-15 04:29N 41°18' E 002°09'2 0.5
2014-Oct-15 00:25N 41°20' E 002°10'1 0.1
2014-Oct-14 14:28N 41°21' E 002°09'0 0.0
2014-Oct-14 13:19N 41°21' E 002°09'0 0.0
2014-Oct-14 12:17N 41°21' E 002°09'0 0.0
2014-Oct-14 07:12N 41°21' E 002°09'1 1.6
2014-Oct-14 06:32N 41°20' E 002°10'1 0.1
2014-Oct-13 19:25N 41°21' E 002°09'0 0.0
2014-Oct-13 10:16N 41°21' E 002°09'0 0.0
2014-Oct-13 09:33N 41°21' E 002°09'0 0.0
2014-Oct-13 08:29N 41°21' E 002°09'0 0.0
2014-Oct-13 07:26N 41°21' E 002°09'1 0.5
2014-Oct-13 06:30N 41°20' E 002°09'1 1.0
2014-Oct-13 05:33N 41°19' E 002°10'1 1.1
2014-Oct-13 04:18N 41°21' E 002°09'0 0.4
2014-Oct-13 03:33N 41°21' E 002°09'0 0.1
2014-Oct-13 00:33N 41°21' E 002°09'0 0.0
2014-Oct-12 23:08N 41°21' E 002°09'0 0.0
2014-Oct-12 21:32N 41°21' E 002°09'1 0.3
2014-Oct-12 18:27N 41°21' E 002°10'1 0.7
2014-Oct-12 17:17N 41°21' E 002°09'  
Track history (hours):
 
Tides and Currents Weather Stations Pressure Air Temp Water Temp Dewpoint Dewpoint Depression Visibility Wind Speed Wind Dir Waves Ship Positions

R.catalunya

Last reported at 2014-Oct-21 20:11 UTC. Time now 2014-Oct-23 08:54 UTC.
Position N 41°21' E 002°09'.

; draft 6.5 m.

Type: Tug. MMSI: 224149970.

Date/timePositionNaut miles runAvg speedWind from/ knotsBaromVisibWave heightAir tempDewpointWater temp
2014-Oct-21 20:11N 41°21' E 002°09'0 0.0
2014-Oct-21 17:33N 41°21' E 002°09'0 0.0
2014-Oct-21 15:11N 41°21' E 002°09'0 0.0
2014-Oct-21 14:17N 41°21' E 002°09'0 0.0
2014-Oct-21 13:26N 41°21' E 002°09'0 0.0
2014-Oct-20 19:17N 41°21' E 002°09'1 0.5
2014-Oct-20 17:11N 41°21' E 002°10'1 1.3
2014-Oct-20 16:20N 41°21' E 002°09'2 2.0
2014-Oct-20 15:29N 41°22' E 002°11'2 1.3
2014-Oct-20 14:11N 41°21' E 002°09'0 0.2
2014-Oct-20 12:27N 41°21' E 002°10'0 0.2
2014-Oct-20 10:12N 41°21' E 002°09'0 0.0
2014-Oct-19 19:22N 41°21' E 002°09'1 1.2
2014-Oct-19 18:19N 41°20' E 002°10'1 1.5
2014-Oct-19 17:20N 41°18' E 002°09'1 1.2
2014-Oct-19 16:17N 41°19' E 002°10'2 1.9
2014-Oct-19 15:22N 41°21' E 002°09'0 0.0
2014-Oct-19 14:33N 41°21' E 002°09'0 0.0
2014-Oct-19 13:25N 41°21' E 002°09'0 0.0
2014-Oct-19 12:27N 41°21' E 002°09'0 0.0
2014-Oct-19 11:24N 41°21' E 002°09'0 0.0
2014-Oct-19 10:15N 41°21' E 002°09'0 0.0
2014-Oct-19 09:10N 41°21' E 002°09'1 1.4
2014-Oct-19 08:31N 41°20' E 002°10'1 0.1
2014-Oct-18 21:30N 41°21' E 002°09'0 0.0
2014-Oct-18 20:21N 41°21' E 002°09'0 0.0
2014-Oct-18 19:08N 41°21' E 002°09'0 0.0
2014-Oct-18 18:32N 41°21' E 002°09'1 1.3
2014-Oct-18 17:29N 41°20' E 002°10'1 1.5
2014-Oct-18 16:33N 41°21' E 002°09'1 0.9
2014-Oct-18 15:33N 41°20' E 002°09'0 0.3
2014-Oct-18 14:33N 41°20' E 002°09'1 0.6
2014-Oct-18 13:33N 41°21' E 002°09'0 0.1
2014-Oct-18 12:33N 41°21' E 002°09'1 0.6
2014-Oct-18 11:33N 41°20' E 002°10'1 1.2
2014-Oct-18 10:33N 41°19' E 002°10'2 1.4
2014-Oct-18 09:27N 41°21' E 002°10'1 0.9
2014-Oct-18 08:24N 41°20' E 002°09'1 1.6
2014-Oct-18 07:33N 41°21' E 002°10'2 1.8
2014-Oct-18 06:33N 41°19' E 002°10'2 1.7
2014-Oct-18 05:33N 41°21' E 002°09'0 0.0
2014-Oct-18 04:30N 41°21' E 002°09'0 0.0
2014-Oct-18 03:23N 41°21' E 002°09'0 0.0
2014-Oct-18 02:26N 41°21' E 002°09'0 0.0
2014-Oct-18 01:25N 41°21' E 002°09'0 0.0
2014-Oct-18 00:07N 41°21' E 002°09'0 0.0
2014-Oct-17 23:33N 41°21' E 002°09'0 0.0
2014-Oct-17 22:33N 41°21' E 002°09'0 0.0
2014-Oct-17 21:33N 41°21' E 002°09'0 0.0
2014-Oct-17 20:33N 41°21' E 002°09'0 0.0
2014-Oct-17 19:33N 41°21' E 002°09'0 0.0
2014-Oct-17 18:33N 41°21' E 002°09'0 0.2
2014-Oct-17 17:32N 41°21' E 002°09'0 0.2
2014-Oct-17 16:33N 41°21' E 002°09'0 0.0
2014-Oct-17 15:33N 41°21' E 002°09'1 0.6
2014-Oct-17 14:33N 41°21' E 002°10'1 0.6
2014-Oct-17 13:33N 41°21' E 002°09'0 0.0
2014-Oct-17 12:33N 41°21' E 002°09'0 0.0
2014-Oct-17 11:33N 41°21' E 002°09'0 0.0
2014-Oct-17 10:31N 41°21' E 002°09'1 1.3
2014-Oct-17 09:33N 41°22' E 002°10'2 2.2
2014-Oct-17 08:33N 41°19' E 002°10'2 1.5
2014-Oct-17 07:34N 41°21' E 002°10'1 0.8
2014-Oct-17 06:33N 41°21' E 002°09'0 0.0
2014-Oct-17 05:33N 41°21' E 002°09'0 0.0
2014-Oct-17 04:33N 41°21' E 002°09'0 0.0
2014-Oct-17 03:33N 41°21' E 002°09'0 0.0
2014-Oct-17 02:33N 41°21' E 002°09'0 0.0
2014-Oct-17 01:33N 41°21' E 002°09'0 0.0
2014-Oct-17 00:33N 41°21' E 002°09'0 0.0
2014-Oct-16 23:33N 41°21' E 002°09'0 0.0
2014-Oct-16 22:33N 41°21' E 002°09'0 0.0
2014-Oct-16 21:32N 41°21' E 002°09'0 0.0
2014-Oct-16 20:25N 41°21' E 002°09'0 0.0
2014-Oct-16 19:33N 41°21' E 002°09'0 0.3
2014-Oct-16 18:33N 41°21' E 002°09'2 2.0
2014-Oct-16 17:33N 41°19' E 002°10'1 0.6
2014-Oct-16 16:33N 41°19' E 002°09'0 0.4
2014-Oct-16 15:33N 41°19' E 002°10'1 1.0
2014-Oct-16 14:33N 41°20' E 002°10'0 0.2
2014-Oct-16 13:33N 41°20' E 002°10'2 1.8
2014-Oct-16 12:33N 41°18' E 002°11'1 1.2
2014-Oct-16 11:33N 41°19' E 002°10'2 1.6
2014-Oct-16 10:33N 41°21' E 002°09'0 0.0
2014-Oct-16 09:33N 41°21' E 002°09'0 0.0
2014-Oct-16 08:27N 41°21' E 002°09'1 0.6
2014-Oct-16 07:32N 41°21' E 002°10'0 0.4
2014-Oct-16 06:32N 41°20' E 002°10'1 0.9
2014-Oct-16 05:32N 41°21' E 002°09'0 0.0
2014-Oct-16 01:17N 41°21' E 002°09'0 0.0
2014-Oct-16 00:32N 41°21' E 002°09'0 0.0
2014-Oct-15 23:33N 41°21' E 002°09'0 0.0
2014-Oct-15 22:33N 41°21' E 002°09'0 0.0
2014-Oct-15 21:32N 41°21' E 002°09'0 0.0
2014-Oct-15 20:33N 41°21' E 002°09'0 0.0
2014-Oct-15 19:33N 41°21' E 002°09'0 0.0
2014-Oct-15 18:32N 41°21' E 002°09'1 1.2
2014-Oct-15 17:32N 41°20' E 002°10'2 2.1
2014-Oct-15 16:33N 41°22' E 002°10'0 0.2
2014-Oct-15 14:30N 41°21' E 002°10'2 1.9
2014-Oct-15 13:33N 41°19' E 002°10'1 1.2
2014-Oct-15 12:33N 41°18' E 002°09'3 3.2
2014-Oct-15 11:33N 41°22' E 002°11'0 0.1
2014-Oct-15 10:32N 41°22' E 002°10'2 1.4
2014-Oct-15 09:27N 41°20' E 002°10'1 0.8
2014-Oct-15 08:14N 41°21' E 002°09'0 0.6
2014-Oct-15 07:23N 41°20' E 002°09'0 0.1
2014-Oct-15 05:04N 41°21' E 002°09'2 3.7
2014-Oct-15 04:29N 41°18' E 002°09'2 0.5
2014-Oct-15 00:25N 41°20' E 002°10'1 0.1
2014-Oct-14 14:28N 41°21' E 002°09'0 0.0
2014-Oct-14 13:19N 41°21' E 002°09'0 0.0
2014-Oct-14 12:17N 41°21' E 002°09'0 0.0
2014-Oct-14 07:12N 41°21' E 002°09'1 1.6
2014-Oct-14 06:32N 41°20' E 002°10'1 0.1
2014-Oct-13 19:25N 41°21' E 002°09'0 0.0
2014-Oct-13 10:16N 41°21' E 002°09'0 0.0
2014-Oct-13 09:33N 41°21' E 002°09'0 0.0
2014-Oct-13 08:29N 41°21' E 002°09'0 0.0
2014-Oct-13 07:26N 41°21' E 002°09'1 0.5
2014-Oct-13 06:30N 41°20' E 002°09'1 1.0
2014-Oct-13 05:33N 41°19' E 002°10'1 1.1
2014-Oct-13 04:18N 41°21' E 002°09'0 0.4
2014-Oct-13 03:33N 41°21' E 002°09'0 0.1
2014-Oct-13 00:33N 41°21' E 002°09'0 0.0
2014-Oct-12 23:08N 41°21' E 002°09'0 0.0
2014-Oct-12 21:32N 41°21' E 002°09'1 0.3
2014-Oct-12 18:27N 41°21' E 002°10'1 0.7
2014-Oct-12 17:17N 41°21' E 002°09'  

Dump ship's entire track history